International Virtual Aviation Organisation

Russian Federation and Kazakhstan MCD

 

Карточка аэропорта UMKK

Внимание!
Информация на этой странице в стадии наполнения.
Если вы не увидели какой-то информации, или заметили неточность - пожалуйста сообщите нам!
Спасибо!
Команда RU-STAFF
Название аэропортаХраброво
Название аэропорта (англ.)Khrabrovo
Превышение43 ft. (13.1 m.)
Координаты54°53.4', 20°35.55'
Высота перехода1000m
Эшелон переходаQFE>=742mm:FL050; QFE<742:FL060
Коды ответчика6620-6637
Зона ОрВДКалининград РПИ (UMKK)
Данные METARUMKK 180730Z 34003MPS 300V020 9999 -SHSN BKN016CB M00/M01 Q1003 RESHSN R06/690336 NOSIG RMK QFE751/1001
Проноз погоды (TAF)UMKK 180501Z 1806/1906 02005G10MPS 3100 -SN BKN006 TEMPO 1806/1809 1100 SN BKN004 FM180900 31003G08MPS 9999 SCT011 BKN030 BECMG 1812/1814 26003G08MPS TEMPO 1900/1906 25005G11MPS 1400 SHSN BKN004 BKN015CB
NOTAMshow/hide NOTAM
AWOS   TABLE

Информация о ВПП

ВПП Длина ВПП (м.) Покрытие Курс ВПП Частота ILS
062500Асфальтобетон61 
242500Асфальтобетон241109.5

Диспетчерские позиции

Позывной Наименование органа УВД Частота
UMKK_APPКалининград-Подход126.0
UMKK_TWRКалининград-Вышка127.2



Спутниковое изображение